createdAt,value
2023-08-06T00:00:07.675Z,15.02
2023-08-06T00:01:08.050Z,14.99
2023-08-06T00:02:07.700Z,14.92
2023-08-06T00:03:07.734Z,14.88
2023-08-06T00:04:07.613Z,14.88
2023-08-06T00:05:07.644Z,14.82
2023-08-06T00:06:07.602Z,14.82
2023-08-06T00:07:07.668Z,14.81
2023-08-06T00:08:07.594Z,14.79
2023-08-06T00:09:07.555Z,14.82
2023-08-06T00:10:07.603Z,14.82
2023-08-06T00:11:07.536Z,14.82
2023-08-06T00:12:07.517Z,14.79
2023-08-06T00:13:07.490Z,14.79
2023-08-06T00:14:07.518Z,14.82
2023-08-06T00:15:07.483Z,14.82
2023-08-06T00:16:07.457Z,14.84
2023-08-06T00:17:07.480Z,14.81
2023-08-06T00:18:07.432Z,14.79
2023-08-06T00:19:07.425Z,14.73
2023-08-06T00:20:07.758Z,14.72
2023-08-06T00:21:07.380Z,14.77
2023-08-06T00:22:07.372Z,14.78
2023-08-06T00:23:07.370Z,14.77
2023-08-06T00:24:07.376Z,14.78
2023-08-06T00:25:07.357Z,14.78
2023-08-06T00:26:07.370Z,14.77
2023-08-06T00:27:07.310Z,14.73
2023-08-06T00:28:07.312Z,14.69
2023-08-06T00:29:07.289Z,14.70
2023-08-06T00:30:07.252Z,14.72
2023-08-06T00:31:07.291Z,14.70
2023-08-06T00:32:07.269Z,14.69
2023-08-06T00:33:07.268Z,14.69
2023-08-06T00:34:07.228Z,14.70
2023-08-06T00:35:07.232Z,14.73
2023-08-06T00:36:07.173Z,14.77
2023-08-06T00:37:07.182Z,14.79
2023-08-06T00:38:07.188Z,14.81
2023-08-06T00:39:07.147Z,14.82
2023-08-06T00:40:07.155Z,14.82
2023-08-06T00:41:07.103Z,14.84
2023-08-06T00:42:07.120Z,14.84
2023-08-06T00:43:07.093Z,14.84
2023-08-06T00:44:07.094Z,14.84
2023-08-06T00:45:07.065Z,14.85
2023-08-06T00:46:07.089Z,14.86
2023-08-06T00:47:07.041Z,14.86
2023-08-06T00:48:07.004Z,14.86
2023-08-06T00:49:07.009Z,14.86
2023-08-06T00:50:07.018Z,14.88
2023-08-06T00:51:06.975Z,14.89
2023-08-06T00:52:07.003Z,14.88
2023-08-06T00:53:06.974Z,14.88
2023-08-06T00:54:06.961Z,14.88
2023-08-06T00:55:07.020Z,14.86
2023-08-06T00:56:07.022Z,14.88
2023-08-06T00:57:06.915Z,14.88
2023-08-06T00:58:06.912Z,14.88
2023-08-06T00:59:06.871Z,14.84
2023-08-06T01:00:06.851Z,14.77
2023-08-06T01:01:06.908Z,14.72
2023-08-06T01:02:06.934Z,14.69
2023-08-06T01:03:06.870Z,14.68
2023-08-06T01:04:06.843Z,14.68
2023-08-06T01:05:06.810Z,14.68
2023-08-06T01:06:06.801Z,14.69
2023-08-06T01:07:06.830Z,14.70
2023-08-06T01:08:06.771Z,14.72
2023-08-06T01:09:06.744Z,14.70
2023-08-06T01:10:06.727Z,14.70
2023-08-06T01:11:06.726Z,14.72
2023-08-06T01:12:06.697Z,14.72
2023-08-06T01:13:06.709Z,14.73
2023-08-06T01:14:06.694Z,14.77
2023-08-06T01:15:06.672Z,14.77
2023-08-06T01:16:06.703Z,14.77
2023-08-06T01:17:06.632Z,14.77
2023-08-06T01:18:06.627Z,14.73
2023-08-06T01:19:06.639Z,14.77
2023-08-06T01:20:06.589Z,14.72
2023-08-06T01:21:06.596Z,14.70
2023-08-06T01:22:06.559Z,14.66
2023-08-06T01:23:06.575Z,14.65
2023-08-06T01:24:06.545Z,14.65
2023-08-06T01:25:06.551Z,14.65
2023-08-06T01:26:06.545Z,14.66
2023-08-06T01:27:06.490Z,14.65
2023-08-06T01:28:06.488Z,14.66
2023-08-06T01:29:06.469Z,14.68
2023-08-06T01:30:06.470Z,14.68
2023-08-06T01:31:06.475Z,14.70
2023-08-06T01:32:06.439Z,14.70
2023-08-06T01:33:06.575Z,14.70
2023-08-06T01:34:06.413Z,14.69
2023-08-06T01:35:06.392Z,14.70
2023-08-06T01:36:06.382Z,14.69
2023-08-06T01:37:06.430Z,14.70
2023-08-06T01:38:06.356Z,14.70
2023-08-06T01:39:06.335Z,14.72
2023-08-06T01:40:06.317Z,14.72
2023-08-06T01:41:06.310Z,14.72
2023-08-06T01:42:06.302Z,14.70
2023-08-06T01:43:06.318Z,14.70
2023-08-06T01:44:06.275Z,14.72
2023-08-06T01:45:06.250Z,14.72
2023-08-06T01:46:06.276Z,14.69
2023-08-06T01:47:06.238Z,14.68
2023-08-06T01:48:06.269Z,14.68
2023-08-06T01:49:06.236Z,14.69
2023-08-06T01:50:06.314Z,14.68
2023-08-06T01:51:06.178Z,14.65
2023-08-06T01:52:06.177Z,14.63
2023-08-06T01:53:06.148Z,14.65
2023-08-06T01:54:06.148Z,14.65
2023-08-06T01:55:06.140Z,14.65
2023-08-06T01:56:06.127Z,14.63
2023-08-06T01:57:06.102Z,14.65
2023-08-06T01:58:06.090Z,14.66
2023-08-06T01:59:06.077Z,14.65
2023-08-06T02:00:06.066Z,14.63
2023-08-06T02:01:06.069Z,14.60
2023-08-06T02:02:06.011Z,14.54
2023-08-06T02:03:06.010Z,14.54
2023-08-06T02:04:06.014Z,14.50
2023-08-06T02:05:06.029Z,14.45
2023-08-06T02:06:05.956Z,14.41
2023-08-06T02:07:05.948Z,14.41
2023-08-06T02:08:05.991Z,14.40
2023-08-06T02:09:05.936Z,14.40
2023-08-06T02:10:05.961Z,14.40
2023-08-06T02:11:05.905Z,14.37
2023-08-06T02:12:05.891Z,14.37
2023-08-06T02:13:05.864Z,14.37
2023-08-06T02:14:05.905Z,14.36
2023-08-06T02:15:05.839Z,14.37
2023-08-06T02:16:05.884Z,14.37
2023-08-06T02:17:05.841Z,14.40
2023-08-06T02:18:05.810Z,14.41
2023-08-06T02:19:05.785Z,14.43
2023-08-06T02:20:05.796Z,14.43
2023-08-06T02:21:05.787Z,14.45
2023-08-06T02:22:05.802Z,14.44
2023-08-06T02:23:05.735Z,14.41
2023-08-06T02:24:05.722Z,14.41
2023-08-06T02:25:05.713Z,14.40
2023-08-06T02:26:05.732Z,14.37
2023-08-06T02:27:05.768Z,14.37
2023-08-06T02:28:05.696Z,14.35
2023-08-06T02:29:05.663Z,14.33
2023-08-06T02:30:05.653Z,14.30
2023-08-06T02:31:05.676Z,14.25
2023-08-06T02:32:05.622Z,14.20
2023-08-06T02:33:05.601Z,14.20
2023-08-06T02:34:05.627Z,14.17
2023-08-06T02:35:05.583Z,14.14
2023-08-06T02:36:05.594Z,14.14
2023-08-06T02:37:05.548Z,14.08
2023-08-06T02:38:05.545Z,14.05
2023-08-06T02:39:05.564Z,14.03
2023-08-06T02:40:05.515Z,14.00
2023-08-06T02:41:05.523Z,13.96
2023-08-06T02:42:05.489Z,13.95
2023-08-06T02:43:05.494Z,13.92
2023-08-06T02:44:05.464Z,13.96
2023-08-06T02:45:05.463Z,13.95
2023-08-06T02:46:05.544Z,13.96
2023-08-06T02:47:05.413Z,13.93
2023-08-06T02:48:05.463Z,13.92
2023-08-06T02:49:05.392Z,13.95
2023-08-06T02:50:05.394Z,13.95
2023-08-06T02:51:06.196Z,13.96
2023-08-06T02:52:05.369Z,13.95
2023-08-06T02:53:05.344Z,13.95
2023-08-06T02:54:05.320Z,13.96
2023-08-06T02:55:05.325Z,13.90
2023-08-06T02:56:05.296Z,13.86
2023-08-06T02:57:05.317Z,13.83
2023-08-06T02:58:05.264Z,13.81
2023-08-06T02:59:05.261Z,13.79
2023-08-06T03:00:05.253Z,13.79
2023-08-06T03:01:05.291Z,13.79
2023-08-06T03:02:05.242Z,13.79
2023-08-06T03:03:05.234Z,13.77
2023-08-06T03:04:05.219Z,13.74
2023-08-06T03:05:05.205Z,13.71
2023-08-06T03:06:05.177Z,13.68
2023-08-06T03:07:05.155Z,13.68
2023-08-06T03:08:05.154Z,13.67
2023-08-06T03:09:05.152Z,13.68
2023-08-06T03:10:05.122Z,13.63
2023-08-06T03:11:05.094Z,13.65
2023-08-06T03:12:05.092Z,13.65
2023-08-06T03:13:05.082Z,13.63
2023-08-06T03:14:05.074Z,13.63
2023-08-06T03:15:05.061Z,13.65
2023-08-06T03:16:05.031Z,13.65
2023-08-06T03:17:05.029Z,13.68
2023-08-06T03:18:05.052Z,13.70
2023-08-06T03:19:05.015Z,13.70
2023-08-06T03:20:04.976Z,13.72
2023-08-06T03:21:05.000Z,13.72
2023-08-06T03:22:04.946Z,13.68
2023-08-06T03:23:04.940Z,13.70
2023-08-06T03:24:04.973Z,13.70
2023-08-06T03:25:04.913Z,13.67
2023-08-06T03:26:04.927Z,13.65
2023-08-06T03:27:04.883Z,13.60
2023-08-06T03:28:04.858Z,13.57
2023-08-06T03:29:04.853Z,13.56
2023-08-06T03:30:04.839Z,13.57
2023-08-06T03:31:04.861Z,13.56
2023-08-06T03:32:04.848Z,13.56
2023-08-06T03:33:04.857Z,13.54
2023-08-06T03:34:04.779Z,13.53
2023-08-06T03:35:04.774Z,13.56
2023-08-06T03:36:04.750Z,13.56
2023-08-06T03:37:04.752Z,13.57
2023-08-06T03:38:04.742Z,13.56
2023-08-06T03:39:04.718Z,13.56
2023-08-06T03:40:04.699Z,13.57
2023-08-06T03:41:04.704Z,13.54
2023-08-06T03:42:04.669Z,13.52
2023-08-06T03:43:04.667Z,13.52
2023-08-06T03:44:04.690Z,13.53
2023-08-06T03:45:04.638Z,13.50
2023-08-06T03:46:04.629Z,13.49
2023-08-06T03:47:04.620Z,13.49
2023-08-06T03:48:04.594Z,13.47
2023-08-06T03:49:04.598Z,13.46
2023-08-06T03:50:04.596Z,13.41
2023-08-06T03:51:04.592Z,13.39
2023-08-06T03:52:04.533Z,13.39
2023-08-06T03:53:04.538Z,13.41
2023-08-06T03:54:04.529Z,13.39
2023-08-06T03:55:04.533Z,13.41
2023-08-06T03:56:04.507Z,13.42
2023-08-06T03:57:04.496Z,13.44
2023-08-06T03:58:04.488Z,13.47
2023-08-06T03:59:04.449Z,13.46
2023-08-06T04:00:04.480Z,13.42
2023-08-06T04:01:04.553Z,13.44
2023-08-06T04:02:04.408Z,13.46
2023-08-06T04:03:04.512Z,13.49
2023-08-06T04:04:04.398Z,13.49
2023-08-06T04:05:04.366Z,13.52
2023-08-06T04:06:04.371Z,13.50
2023-08-06T04:07:04.363Z,13.50
2023-08-06T04:08:04.345Z,13.52
2023-08-06T04:09:04.322Z,13.52
2023-08-06T04:10:04.317Z,13.50
2023-08-06T04:11:04.285Z,13.52
2023-08-06T04:12:04.277Z,13.56
2023-08-06T04:13:04.294Z,13.56
2023-08-06T04:14:04.259Z,13.60
2023-08-06T04:15:04.234Z,13.63
2023-08-06T04:16:04.258Z,13.65
2023-08-06T04:17:04.214Z,13.67
2023-08-06T04:18:04.242Z,13.70
2023-08-06T04:19:04.231Z,13.68
2023-08-06T04:20:04.196Z,13.71
2023-08-06T04:21:04.150Z,13.72
2023-08-06T04:22:04.152Z,13.74
2023-08-06T04:23:04.139Z,13.74
2023-08-06T04:24:04.112Z,13.72
2023-08-06T04:25:04.121Z,13.74
2023-08-06T04:26:04.088Z,13.74
2023-08-06T04:27:04.078Z,13.74
2023-08-06T04:28:04.063Z,13.74
2023-08-06T04:29:04.050Z,13.74
2023-08-06T04:30:04.053Z,13.71
2023-08-06T04:31:04.130Z,13.71
2023-08-06T04:32:04.020Z,13.71
2023-08-06T04:33:04.050Z,13.72
2023-08-06T04:34:04.041Z,13.72
2023-08-06T04:35:03.982Z,13.71
2023-08-06T04:36:04.003Z,13.70
2023-08-06T04:37:03.960Z,13.68
2023-08-06T04:38:03.925Z,13.65
2023-08-06T04:39:03.925Z,13.65
2023-08-06T04:40:03.890Z,13.67
2023-08-06T04:41:03.900Z,13.68
2023-08-06T04:42:03.871Z,13.67
2023-08-06T04:43:03.906Z,13.68
2023-08-06T04:44:03.836Z,13.68
2023-08-06T04:45:03.855Z,13.68
2023-08-06T04:46:03.880Z,13.68
2023-08-06T04:47:03.809Z,13.68
2023-08-06T04:48:03.899Z,13.70
2023-08-06T04:49:03.830Z,13.70
2023-08-06T04:50:03.767Z,13.68
2023-08-06T04:51:03.756Z,13.67
2023-08-06T04:52:03.762Z,13.67
2023-08-06T04:53:03.713Z,13.65
2023-08-06T04:54:03.708Z,13.67
2023-08-06T04:55:03.739Z,13.68
2023-08-06T04:56:03.699Z,13.70
2023-08-06T04:57:03.669Z,13.70
2023-08-06T04:58:03.650Z,13.65
2023-08-06T04:59:03.652Z,13.60
2023-08-06T05:00:03.631Z,13.57
2023-08-06T05:01:03.666Z,13.57
2023-08-06T05:02:03.622Z,13.59
2023-08-06T05:03:03.679Z,13.60
2023-08-06T05:04:03.687Z,13.59
2023-08-06T05:05:03.564Z,13.62
2023-08-06T05:06:03.571Z,13.63
2023-08-06T05:07:03.562Z,13.63
2023-08-06T05:08:03.529Z,13.65
2023-08-06T05:09:03.506Z,13.68
2023-08-06T05:10:03.512Z,13.67
2023-08-06T05:11:03.476Z,13.65
2023-08-06T05:12:03.484Z,13.59
2023-08-06T05:13:03.488Z,13.56
2023-08-06T05:14:03.462Z,13.59
2023-08-06T05:15:03.461Z,13.62
2023-08-06T05:16:03.453Z,13.60
2023-08-06T05:17:03.423Z,13.60
2023-08-06T05:18:03.404Z,13.59
2023-08-06T05:19:03.400Z,13.56
2023-08-06T05:20:03.369Z,13.59
2023-08-06T05:21:03.357Z,13.60
2023-08-06T05:22:03.438Z,13.62
2023-08-06T05:23:03.335Z,13.63
2023-08-06T05:24:03.305Z,13.65
2023-08-06T05:25:03.331Z,13.63
2023-08-06T05:26:03.303Z,13.63
2023-08-06T05:27:03.283Z,13.63
2023-08-06T05:28:03.269Z,13.65
2023-08-06T05:29:03.262Z,13.65
2023-08-06T05:30:03.238Z,13.68
2023-08-06T05:31:03.249Z,13.70
2023-08-06T05:32:03.239Z,13.70
2023-08-06T05:33:03.225Z,13.70
2023-08-06T05:34:03.194Z,13.72
2023-08-06T05:35:03.165Z,13.72
2023-08-06T05:36:03.176Z,13.72
2023-08-06T05:37:03.185Z,13.72
2023-08-06T05:38:03.179Z,13.71
2023-08-06T05:39:03.126Z,13.71
2023-08-06T05:40:03.123Z,13.68
2023-08-06T05:41:03.119Z,13.62
2023-08-06T05:42:03.104Z,13.57
2023-08-06T05:43:03.087Z,13.54
2023-08-06T05:44:04.598Z,13.57
2023-08-06T05:45:03.032Z,13.57
2023-08-06T05:46:03.077Z,13.60
2023-08-06T05:47:03.004Z,13.59
2023-08-06T05:48:03.029Z,13.56
2023-08-06T05:49:03.009Z,13.59
2023-08-06T05:50:02.954Z,13.59
2023-08-06T05:51:02.961Z,13.62
2023-08-06T05:52:02.929Z,13.62
2023-08-06T05:53:02.966Z,13.59
2023-08-06T05:54:02.900Z,13.57
2023-08-06T05:55:02.954Z,13.57
2023-08-06T05:56:02.877Z,13.59
2023-08-06T05:57:02.899Z,13.59
2023-08-06T05:58:02.870Z,13.56
2023-08-06T05:59:02.835Z,13.60
2023-08-06T06:00:02.847Z,13.62
2023-08-06T06:01:02.881Z,13.63
2023-08-06T06:02:02.801Z,13.67
2023-08-06T06:03:02.828Z,13.68
2023-08-06T06:04:02.783Z,13.68
2023-08-06T06:05:02.778Z,13.68
2023-08-06T06:06:02.754Z,13.65
2023-08-06T06:07:02.797Z,13.67
2023-08-06T06:08:02.727Z,13.63
2023-08-06T06:09:02.716Z,13.60
2023-08-06T06:10:02.713Z,13.62
2023-08-06T06:11:02.691Z,13.65
2023-08-06T06:12:02.657Z,13.65
2023-08-06T06:13:02.682Z,13.63
2023-08-06T06:14:02.644Z,13.59
2023-08-06T06:15:02.634Z,13.54
2023-08-06T06:16:02.636Z,13.56
2023-08-06T06:17:02.605Z,13.53
2023-08-06T06:18:02.629Z,13.56
2023-08-06T06:19:02.618Z,13.59
2023-08-06T06:20:02.560Z,13.63
2023-08-06T06:21:02.551Z,13.67
2023-08-06T06:22:02.580Z,13.67
2023-08-06T06:23:02.542Z,13.70
2023-08-06T06:24:02.503Z,13.71
2023-08-06T06:25:02.585Z,13.74
2023-08-06T06:26:02.482Z,13.74
2023-08-06T06:27:02.491Z,13.77
2023-08-06T06:28:02.486Z,13.77
2023-08-06T06:29:02.459Z,13.78
2023-08-06T06:30:02.430Z,13.75
2023-08-06T06:31:02.527Z,13.77
2023-08-06T06:32:02.411Z,13.72
2023-08-06T06:33:02.426Z,13.74
2023-08-06T06:34:02.387Z,13.74
2023-08-06T06:35:02.375Z,13.74
2023-08-06T06:36:02.358Z,13.75
2023-08-06T06:37:02.384Z,13.75
2023-08-06T06:38:02.349Z,13.75
2023-08-06T06:39:02.318Z,13.75
2023-08-06T06:40:02.307Z,13.74
2023-08-06T06:41:02.293Z,13.72
2023-08-06T06:42:02.278Z,13.71
2023-08-06T06:43:02.338Z,13.74
2023-08-06T06:44:02.249Z,13.77
2023-08-06T06:45:02.233Z,13.79
2023-08-06T06:46:02.269Z,13.78
2023-08-06T06:47:02.203Z,13.79
2023-08-06T06:48:02.284Z,13.81
2023-08-06T06:49:02.209Z,13.85
2023-08-06T06:50:02.268Z,13.86
2023-08-06T06:51:02.239Z,13.86
2023-08-06T06:52:02.142Z,13.85
2023-08-06T06:53:02.121Z,13.83
2023-08-06T06:54:02.115Z,13.83
2023-08-06T06:55:02.138Z,13.83
2023-08-06T06:56:02.086Z,13.83
2023-08-06T06:57:02.135Z,13.86
2023-08-06T06:58:02.073Z,13.87
2023-08-06T06:59:02.046Z,13.83
2023-08-06T07:00:03.757Z,13.83
2023-08-06T07:01:02.075Z,13.85
2023-08-06T07:02:02.372Z,13.81
2023-08-06T07:03:02.038Z,13.81
2023-08-06T07:04:02.021Z,13.85
2023-08-06T07:05:01.967Z,13.87
2023-08-06T07:06:02.007Z,13.90
2023-08-06T07:07:02.029Z,13.93
2023-08-06T07:08:01.928Z,13.97
2023-08-06T07:09:01.923Z,13.96
2023-08-06T07:10:01.902Z,13.97
2023-08-06T07:11:01.877Z,13.96
2023-08-06T07:12:01.874Z,13.99
2023-08-06T07:13:01.882Z,14.03
2023-08-06T07:14:01.834Z,14.04
2023-08-06T07:15:01.841Z,14.04
2023-08-06T07:16:01.814Z,14.04
2023-08-06T07:17:01.837Z,14.03
2023-08-06T07:18:01.829Z,14.03
2023-08-06T07:19:01.798Z,14.07
2023-08-06T07:20:01.771Z,14.05
2023-08-06T07:21:01.763Z,14.05
2023-08-06T07:22:01.748Z,14.07
2023-08-06T07:23:01.860Z,14.10
2023-08-06T07:24:01.717Z,14.14
2023-08-06T07:25:01.727Z,14.17
2023-08-06T07:26:01.705Z,14.22
2023-08-06T07:27:01.700Z,14.25
2023-08-06T07:28:01.649Z,14.28
2023-08-06T07:29:01.628Z,14.29
2023-08-06T07:30:01.661Z,14.30
2023-08-06T07:31:01.660Z,14.30
2023-08-06T07:32:01.601Z,14.32
2023-08-06T07:33:01.654Z,14.33
2023-08-06T07:34:01.576Z,14.36
2023-08-06T07:35:01.561Z,14.37
2023-08-06T07:36:01.568Z,14.41
2023-08-06T07:37:01.577Z,14.43
2023-08-06T07:38:01.522Z,14.45
2023-08-06T07:39:01.643Z,14.48
2023-08-06T07:40:01.493Z,14.53
2023-08-06T07:41:01.495Z,14.55
2023-08-06T07:42:01.487Z,14.58
2023-08-06T07:43:01.465Z,14.59
2023-08-06T07:44:01.466Z,14.60
2023-08-06T07:45:01.449Z,14.62
2023-08-06T07:46:01.448Z,14.69
2023-08-06T07:47:01.423Z,14.77
2023-08-06T07:48:01.409Z,14.81
2023-08-06T07:49:01.371Z,14.86
2023-08-06T07:50:01.432Z,14.92
2023-08-06T07:51:01.350Z,14.97
2023-08-06T07:52:01.340Z,14.99
2023-08-06T07:53:01.378Z,15.02
2023-08-06T07:54:01.317Z,15.06
2023-08-06T07:55:01.288Z,15.06
2023-08-06T07:56:01.293Z,15.11
2023-08-06T07:57:01.259Z,15.15
2023-08-06T07:58:01.261Z,15.19
2023-08-06T07:59:01.274Z,15.27
2023-08-06T08:00:01.253Z,15.33
2023-08-06T08:01:04.034Z,15.42
2023-08-06T08:02:01.200Z,15.47
2023-08-06T08:03:01.244Z,15.52
2023-08-06T08:04:01.178Z,15.57
2023-08-06T08:05:01.209Z,15.58
2023-08-06T08:06:01.158Z,15.61
2023-08-06T08:07:01.145Z,15.62
2023-08-06T08:08:01.131Z,15.62
2023-08-06T08:09:01.121Z,15.64
2023-08-06T08:10:01.097Z,15.62
2023-08-06T08:11:01.118Z,15.64
2023-08-06T08:12:01.537Z,15.65
2023-08-06T08:13:01.045Z,15.64
2023-08-06T08:14:01.048Z,15.62
2023-08-06T08:15:01.036Z,15.62
2023-08-06T08:16:01.010Z,15.65
2023-08-06T08:17:01.023Z,15.65
2023-08-06T08:18:01.064Z,15.65
2023-08-06T08:19:00.981Z,15.64
2023-08-06T08:20:00.988Z,15.62
2023-08-06T08:21:00.952Z,15.61
2023-08-06T08:22:00.948Z,15.64
2023-08-06T08:23:00.918Z,15.62
2023-08-06T08:24:00.892Z,15.61
2023-08-06T08:25:00.892Z,15.54
2023-08-06T08:26:00.861Z,15.47
2023-08-06T08:27:00.870Z,15.42
2023-08-06T08:28:00.886Z,15.35
2023-08-06T08:29:00.830Z,15.31
2023-08-06T08:30:00.820Z,15.24
2023-08-06T08:31:00.875Z,15.18
2023-08-06T08:32:00.794Z,15.14
2023-08-06T08:33:00.832Z,15.09
2023-08-06T08:34:00.839Z,15.04
2023-08-06T08:35:00.802Z,15.03
2023-08-06T08:36:00.728Z,15.03
2023-08-06T08:37:00.747Z,15.02
2023-08-06T08:38:00.708Z,15.02
2023-08-06T08:39:00.711Z,14.99
2023-08-06T08:40:00.738Z,14.96
2023-08-06T08:41:00.668Z,14.94
2023-08-06T08:42:00.660Z,14.92
2023-08-06T08:43:00.644Z,14.91
2023-08-06T08:44:00.630Z,14.91
2023-08-06T08:45:00.617Z,14.94
2023-08-06T08:46:00.692Z,14.94
2023-08-06T08:47:00.593Z,14.94
2023-08-06T08:48:00.640Z,14.94
2023-08-06T08:49:00.559Z,14.96
2023-08-06T08:50:00.552Z,14.97
2023-08-06T08:51:00.545Z,15.00
2023-08-06T08:52:00.549Z,15.03
2023-08-06T08:53:00.519Z,15.04
2023-08-06T08:54:00.501Z,15.06
2023-08-06T08:55:00.492Z,15.09
2023-08-06T08:56:00.479Z,15.10
2023-08-06T08:57:00.455Z,15.14
2023-08-06T08:58:00.465Z,15.15
2023-08-06T08:59:00.443Z,15.15
2023-08-06T09:00:00.433Z,15.18
2023-08-06T09:01:00.407Z,15.21
2023-08-06T09:02:00.443Z,15.19
2023-08-06T09:03:00.398Z,15.22
2023-08-06T09:04:00.401Z,15.24
2023-08-06T09:05:00.353Z,15.25
2023-08-06T09:06:00.349Z,15.27
2023-08-06T09:07:00.317Z,15.27
2023-08-06T09:08:00.315Z,15.29
2023-08-06T09:09:00.298Z,15.33
2023-08-06T09:10:00.316Z,15.36
2023-08-06T09:11:00.264Z,15.39
2023-08-06T09:12:00.280Z,15.39
2023-08-06T09:13:00.257Z,15.39
2023-08-06T09:14:00.222Z,15.39
2023-08-06T09:15:00.230Z,15.37
2023-08-06T09:16:00.289Z,15.37
2023-08-06T09:17:00.215Z,15.40
2023-08-06T09:18:00.234Z,15.44
2023-08-06T09:19:00.157Z,15.46
2023-08-06T09:20:00.191Z,15.44
2023-08-06T09:21:00.177Z,15.42
2023-08-06T09:22:00.126Z,15.43
2023-08-06T09:23:00.109Z,15.43
2023-08-06T09:24:00.118Z,15.47
2023-08-06T09:25:00.101Z,15.49
2023-08-06T09:26:00.157Z,15.46
2023-08-06T09:27:00.048Z,15.43
2023-08-06T09:28:00.052Z,15.46
2023-08-06T09:29:00.055Z,15.52
2023-08-06T09:30:00.030Z,15.52
2023-08-06T09:31:00.052Z,15.54
2023-08-06T09:32:00.005Z,15.52
2023-08-06T09:33:00.024Z,15.55
2023-08-06T09:33:59.974Z,15.58
2023-08-06T09:34:59.941Z,15.61
2023-08-06T09:35:59.938Z,15.67
2023-08-06T09:36:59.953Z,15.70
2023-08-06T09:37:59.900Z,15.73
2023-08-06T09:38:59.957Z,15.77
2023-08-06T09:39:59.888Z,15.80
2023-08-06T09:40:59.860Z,15.79
2023-08-06T09:41:59.856Z,15.79
2023-08-06T09:42:59.892Z,15.79
2023-08-06T09:43:59.813Z,15.79
2023-08-06T09:44:59.814Z,15.77
2023-08-06T09:45:59.827Z,15.80
2023-08-06T09:46:59.800Z,15.83
2023-08-06T09:47:59.860Z,15.84
2023-08-06T09:48:59.789Z,15.88
2023-08-06T09:49:59.751Z,15.94
2023-08-06T09:50:59.750Z,15.92
2023-08-06T09:51:59.723Z,15.90
2023-08-06T09:52:59.698Z,15.84
2023-08-06T09:54:00.551Z,15.91
2023-08-06T09:54:59.741Z,15.97
2023-08-06T09:55:59.657Z,15.98
2023-08-06T09:56:59.654Z,16.01
2023-08-06T09:57:59.636Z,16.02
2023-08-06T09:58:59.634Z,16.04
2023-08-06T09:59:59.613Z,16.02
2023-08-06T10:00:59.668Z,16.02
2023-08-06T10:01:59.585Z,16.01
2023-08-06T10:02:59.636Z,16.01
2023-08-06T10:03:59.959Z,16.01
2023-08-06T10:04:59.561Z,16.01
2023-08-06T10:05:59.569Z,16.04
2023-08-06T10:06:59.545Z,16.05
2023-08-06T10:07:59.497Z,16.09
2023-08-06T10:08:59.486Z,16.10
2023-08-06T10:09:59.494Z,16.16
2023-08-06T10:10:59.464Z,16.17
2023-08-06T10:11:59.472Z,16.20
2023-08-06T10:12:59.443Z,16.21
2023-08-06T10:13:59.433Z,16.23
2023-08-06T10:14:59.410Z,16.23
2023-08-06T10:15:59.436Z,16.29
2023-08-06T10:16:59.387Z,16.33
2023-08-06T10:17:59.441Z,16.36
2023-08-06T10:18:59.355Z,16.36
2023-08-06T10:19:59.333Z,16.38
2023-08-06T10:20:59.334Z,16.38
2023-08-06T10:21:59.315Z,16.42
2023-08-06T10:22:59.304Z,16.50
2023-08-06T10:23:59.323Z,16.50
2023-08-06T10:24:59.313Z,16.58
2023-08-06T10:25:59.264Z,16.66
2023-08-06T10:26:59.277Z,16.75
2023-08-06T10:27:59.281Z,16.84
2023-08-06T10:28:59.259Z,16.89
2023-08-06T10:29:59.279Z,16.96
2023-08-06T10:30:59.215Z,17.01
2023-08-06T10:31:59.271Z,17.09
2023-08-06T10:32:59.208Z,17.15
2023-08-06T10:33:59.218Z,17.22
2023-08-06T10:34:59.217Z,17.23
2023-08-06T10:35:59.518Z,17.23
2023-08-06T10:36:59.121Z,17.26
2023-08-06T10:37:59.108Z,17.27
2023-08-06T10:38:59.083Z,17.27
2023-08-06T10:39:59.087Z,17.30
2023-08-06T10:40:59.094Z,17.31
2023-08-06T10:42:00.312Z,17.31
2023-08-06T10:42:59.023Z,17.29
2023-08-06T10:43:59.014Z,17.26
2023-08-06T10:44:59.011Z,17.27
2023-08-06T10:45:58.997Z,17.24
2023-08-06T10:46:59.115Z,17.22
2023-08-06T10:47:59.079Z,17.16
2023-08-06T10:48:58.950Z,17.11
2023-08-06T10:49:58.933Z,17.08
2023-08-06T10:50:58.929Z,17.04
2023-08-06T10:51:58.917Z,17.04
2023-08-06T10:52:58.954Z,16.97
2023-08-06T10:53:58.879Z,16.89
2023-08-06T10:54:58.880Z,16.83
2023-08-06T10:55:58.868Z,16.76
2023-08-06T10:56:58.848Z,16.72
2023-08-06T10:57:58.860Z,16.71
2023-08-06T10:58:58.867Z,16.64
2023-08-06T11:00:14.267Z,16.60
2023-08-06T11:00:58.828Z,16.57
2023-08-06T11:01:58.785Z,16.54
2023-08-06T11:02:58.842Z,16.53
2023-08-06T11:03:58.785Z,16.51
2023-08-06T11:04:58.745Z,16.50
2023-08-06T11:05:58.734Z,16.49
2023-08-06T11:06:58.711Z,16.49
2023-08-06T11:07:58.719Z,16.49
2023-08-06T11:08:58.744Z,16.50
2023-08-06T11:09:58.673Z,16.50
2023-08-06T11:11:04.097Z,16.53
2023-08-06T11:11:58.666Z,16.54
2023-08-06T11:12:58.646Z,16.56
2023-08-06T11:13:58.623Z,16.57
2023-08-06T11:14:58.623Z,16.58
2023-08-06T11:15:58.594Z,16.57
2023-08-06T11:16:58.628Z,16.58
2023-08-06T11:17:58.632Z,16.61
2023-08-06T11:18:58.595Z,16.64
2023-08-06T11:19:58.553Z,16.64
2023-08-06T11:20:58.571Z,16.65
2023-08-06T11:21:58.527Z,16.68
2023-08-06T11:22:58.539Z,16.69
2023-08-06T11:23:58.501Z,16.74
2023-08-06T11:24:58.469Z,16.76
2023-08-06T11:25:58.487Z,16.79
2023-08-06T11:26:58.490Z,16.83
2023-08-06T11:27:58.575Z,16.86
2023-08-06T11:28:58.441Z,16.86
2023-08-06T11:29:58.422Z,16.89
2023-08-06T11:30:58.440Z,16.91
2023-08-06T11:31:58.447Z,16.97
2023-08-06T11:32:58.364Z,17.02
2023-08-06T11:33:58.359Z,17.05
2023-08-06T11:34:58.340Z,17.11
2023-08-06T11:35:58.343Z,17.14
2023-08-06T11:36:58.326Z,17.14
2023-08-06T11:37:58.333Z,17.14
2023-08-06T11:38:58.297Z,17.14
2023-08-06T11:39:58.290Z,17.15
2023-08-06T11:40:58.275Z,17.16
2023-08-06T11:41:58.260Z,17.19
2023-08-06T11:42:58.258Z,17.19
2023-08-06T11:43:58.267Z,17.20
2023-08-06T11:44:58.222Z,17.20
2023-08-06T11:45:58.243Z,17.23
2023-08-06T11:46:58.209Z,17.24
2023-08-06T11:47:58.199Z,17.26
2023-08-06T11:48:58.203Z,17.23
2023-08-06T11:49:58.167Z,17.22
2023-08-06T11:50:58.124Z,17.22
2023-08-06T11:51:58.132Z,17.23
2023-08-06T11:52:58.140Z,17.27
2023-08-06T11:53:58.194Z,17.36
2023-08-06T11:54:58.082Z,17.42
2023-08-06T11:55:58.140Z,17.44
2023-08-06T11:56:58.042Z,17.46
2023-08-06T11:57:58.044Z,17.52
2023-08-06T11:58:58.028Z,17.59
2023-08-06T11:59:58.066Z,17.57
2023-08-06T12:00:58.033Z,17.59
2023-08-06T12:01:58.368Z,17.64
2023-08-06T12:02:58.020Z,17.74
2023-08-06T12:03:58.004Z,17.74
2023-08-06T12:04:57.938Z,17.74
2023-08-06T12:05:57.964Z,17.70
2023-08-06T12:06:57.945Z,17.67
2023-08-06T12:07:57.908Z,17.63
2023-08-06T12:08:57.894Z,17.60
2023-08-06T12:09:57.888Z,17.57
2023-08-06T12:10:57.868Z,17.51
2023-08-06T12:11:57.871Z,17.46
2023-08-06T12:12:57.849Z,17.41
2023-08-06T12:13:57.825Z,17.39
2023-08-06T12:14:57.816Z,17.29
2023-08-06T12:15:57.853Z,17.26
2023-08-06T12:16:57.789Z,17.26
2023-08-06T12:17:57.841Z,17.27
2023-08-06T12:18:57.760Z,17.30
2023-08-06T12:19:57.763Z,17.33
2023-08-06T12:20:57.736Z,17.34
2023-08-06T12:21:57.707Z,17.38
2023-08-06T12:22:57.740Z,17.34
2023-08-06T12:23:57.674Z,17.36
2023-08-06T12:24:57.676Z,17.34
2023-08-06T12:25:57.705Z,17.36
2023-08-06T12:26:57.647Z,17.31
2023-08-06T12:27:57.627Z,17.27
2023-08-06T12:28:57.671Z,17.20
2023-08-06T12:29:57.613Z,17.08
2023-08-06T12:30:57.683Z,17.06
2023-08-06T12:31:57.580Z,17.05
2023-08-06T12:32:57.597Z,16.96
2023-08-06T12:33:57.591Z,16.97
2023-08-06T12:34:57.546Z,17.01
2023-08-06T12:35:57.544Z,17.04
2023-08-06T12:36:57.504Z,17.05
2023-08-06T12:37:57.503Z,17.09
2023-08-06T12:38:57.500Z,17.16
2023-08-06T12:39:57.512Z,17.26
2023-08-06T12:40:57.462Z,17.33
2023-08-06T12:41:59.842Z,17.44
2023-08-06T12:42:57.428Z,17.54
2023-08-06T12:43:57.400Z,17.63
2023-08-06T12:44:57.444Z,17.71
2023-08-06T12:45:57.507Z,17.74
2023-08-06T12:46:57.381Z,17.79
2023-08-06T12:47:57.529Z,17.80
2023-08-06T12:48:57.353Z,17.83
2023-08-06T12:49:57.346Z,17.87
2023-08-06T12:50:57.346Z,17.94
2023-08-06T12:51:57.329Z,17.94